Time;durP1;ratioP1;P1;durP2;ratioP2;P2;SDS_P1;SDS_P2;PMS_P1;PMS_P2;Temp;Humidity;BMP_temperature;BMP_pressure;BME280_temperature;BME280_humidity;BME280_pressure;Samples;Min_cycle;Max_cycle;Signal;HPM_P1;HPM_P2
2023/03/26 00:13:39;;;;;;;;;;;;;;;;;;;;;
2023/03/26 00:17:55;;;;;;;;;;;;;;;;;;;;;
2023/03/26 00:20:21;;;;;;;9.03;4.90;;;;;;;17.00;69.77;98203.38;5748012;24;20312;-91
2023/03/26 00:23:34;;;;;;;10.67;5.50;;;;;;;16.85;70.35;98202.97;5791889;24;20161;-91
2023/03/26 00:26:20;;;;;;;;;;;;;;;;;;;;;
2023/03/26 00:29:07;;;;;;;;;;;;;;;;;;;;;
2023/03/26 00:35:38;;;;;;;;;;;;;;;;;;;;;
2023/03/26 00:38:12;;;;;;;12.63;7.13;;;;;;;16.09;74.75;98177.38;6124414;23;20235;-91
2023/03/26 00:47:12;;;;;;;;;;;;;;;;;;;;;
2023/03/26 00:50:14;;;;;;;;;;;;;;;;;;;;;
2023/03/26 00:52:45;;;;;;;14.70;6.63;;;;;;;16.27;74.58;98196.06;6146491;23;20231;-92
2023/03/26 00:55:24;;;;;;;;;;;;;;;;;;;;;
2023/03/26 00:57:58;;;;;;;9.63;6.10;;;;;;;16.38;72.98;98194.09;6156792;23;20214;-91
2023/03/26 01:00:34;;;;;;;9.40;5.43;;;;;;;16.32;72.51;98193.81;6131368;23;20228;-91
2023/03/26 01:03:58;;;;;;;9.00;5.47;;;;;;;16.22;72.41;98187.72;6129904;23;20497;-91
2023/03/26 01:07:07;;;;;;;12.30;6.13;;;;;;;16.19;72.22;98206.50;6154664;23;20158;-92
2023/03/26 01:13:35;;;;;;;;;;;;;;;;;;;;;
2023/03/26 01:16:55;;;;;;;;;;;;;;;;;;;;;
2023/03/26 01:30:36;;;;;;;;;;;;;;;;;;;;;
2023/03/26 01:36:56;;;;;;;8.93;5.37;;;;;;;15.71;70.53;98214.31;6142056;23;20260;-91
2023/03/26 01:40:06;;;;;;;;;;;;;;;;;;;;;
2023/03/26 01:45:40;;;;;;;10.10;5.03;;;;;;;15.81;69.71;98223.09;6137302;23;20237;-90
2023/03/26 01:48:19;;;;;;;10.23;5.17;;;;;;;15.67;70.68;98232.22;6156802;23;20198;-91
2023/03/26 01:50:55;;;;;;;;;;;;;;;;;;;;;
2023/03/26 01:53:23;;;;;;;11.67;5.47;;;;;;;15.61;72.00;98237.22;6158413;23;20203;-90
2023/03/26 01:56:12;;;;;;;10.90;5.50;;;;;;;15.49;72.90;98236.47;6157780;23;20198;-90
2023/03/26 01:58:59;;;;;;;10.83;5.57;;;;;;;15.47;73.13;98241.06;6158175;23;20139;-90
2023/03/26 02:02:04;;;;;;;;;;;;;;;;;;;;;
2023/03/26 02:04:55;;;;;;;;;;;;;;;;;;;;;
2023/03/26 02:07:42;;;;;;;11.73;5.87;;;;;;;15.51;74.61;98244.28;6157734;23;20232;-91
2023/03/26 02:33:11;;;;;;;10.53;6.40;;;;;;;15.16;78.01;98281.59;5714043;25;20170;-91
2023/03/26 02:38:54;;;;;;;;;;;;;;;;;;;;;
2023/03/26 02:44:47;;;;;;;13.13;7.37;;;;;;;15.34;78.63;98294.06;6005967;23;20167;-90
2023/03/26 02:47:15;;;;;;;14.63;7.47;;;;;;;15.20;79.32;98297.03;6038683;23;20177;-90
2023/03/26 02:49:40;;;;;;;10.83;6.60;;;;;;;15.18;79.56;98301.63;6038604;23;20200;-89
2023/03/26 02:52:06;;;;;;;12.73;7.93;;;;;;;15.10;80.27;98300.56;6038586;23;20237;-88
2023/03/26 02:54:35;;;;;;;13.20;7.50;;;;;;;15.17;79.95;98302.56;6039237;23;20170;-89
2023/03/26 02:57:06;;;;;;;14.60;7.83;;;;;;;15.11;80.01;98302.25;6155274;23;20155;-90
2023/03/26 02:59:31;;;;;;;14.03;8.20;;;;;;;15.13;80.05;98308.25;6157305;23;20136;-89
2023/03/26 03:01:57;;;;;;;15.83;8.23;;;;;;;15.05;79.66;98303.63;6156498;23;20174;-88
2023/03/26 03:04:22;;;;;;;13.43;8.17;;;;;;;14.97;80.22;98300.78;6156533;23;20158;-90
2023/03/26 03:06:56;;;;;;;15.20;8.13;;;;;;;14.83;80.82;98303.75;6156666;23;20148;-89
2023/03/26 03:09:23;;;;;;;14.77;8.90;;;;;;;14.75;81.31;98306.19;6155328;23;20167;-89
2023/03/26 03:11:50;;;;;;;13.80;8.70;;;;;;;14.84;80.90;98309.84;6157119;23;20214;-90
2023/03/26 03:14:23;;;;;;;13.83;8.63;;;;;;;14.94;80.17;98314.22;6155222;23;20157;-90
2023/03/26 03:16:48;;;;;;;16.43;8.73;;;;;;;15.06;78.79;98305.31;6156428;23;20135;-89
2023/03/26 03:19:19;;;;;;;17.17;8.43;;;;;;;15.09;79.04;98305.03;6156252;23;20183;-90
2023/03/26 03:21:45;;;;;;;15.20;8.67;;;;;;;15.29;78.13;98304.19;6156732;23;20548;-88
2023/03/26 03:24:12;;;;;;;16.17;8.40;;;;;;;15.24;77.51;98313.47;6156320;23;20324;-89
2023/03/26 03:26:41;;;;;;;16.17;8.60;;;;;;;15.18;78.02;98314.81;6155046;23;20225;-90
2023/03/26 03:29:12;;;;;;;14.00;8.23;;;;;;;15.30;77.41;98311.13;6155075;23;20468;-90
2023/03/26 03:31:40;;;;;;;16.37;8.70;;;;;;;15.25;77.42;98310.69;6156223;23;20197;-90
2023/03/26 03:34:30;;;;;;;12.23;7.17;;;;;;;15.39;76.59;98317.44;6154760;23;20172;-90
2023/03/26 03:39:59;;;;;;;11.33;6.80;;;;;;;15.33;76.29;98318.78;6135368;23;20183;-89
2023/03/26 03:45:38;;;;;;;12.33;6.73;;;;;;;15.06;76.93;98315.84;6136099;23;20156;-89
2023/03/26 03:48:22;;;;;;;;;;;;;;;;;;;;;
2023/03/26 03:53:57;;;;;;;9.20;6.13;;;;;;;14.97;75.35;98318.41;6138795;23;20566;-89
2023/03/26 03:57:34;;;;;;;;;;;;;;;;;;;;;
2023/03/26 04:00:00;;;;;;;8.57;5.63;;;;;;;15.17;73.28;98321.03;6154826;23;20264;-90
2023/03/26 04:02:56;;;;;;;8.30;5.70;;;;;;;15.19;73.83;98319.13;6154893;23;20202;-90
2023/03/26 04:09:08;;;;;;;;;;;;;;;;;;;;;
2023/03/26 04:15:01;;;;;;;9.83;5.17;;;;;;;15.32;70.71;98340.91;6164919;23;20242;-91
2023/03/26 04:17:29;;;;;;;9.93;3.87;;;;;;;15.19;69.87;98349.97;6159650;23;20161;-89
2023/03/26 04:20:18;;;;;;;6.93;3.63;;;;;;;15.08;68.47;98342.09;6185968;23;20191;-89
2023/03/26 04:30:33;;;;;;;7.17;3.30;;;;;;;15.14;67.34;98349.53;5981326;24;20265;-90
2023/03/26 04:33:33;;;;;;;5.83;2.83;;;;;;;15.26;67.22;98354.59;5987137;23;20190;-90
2023/03/26 04:39:58;;;;;;;8.07;2.77;;;;;;;14.94;66.61;98356.44;5956228;23;20199;-90
2023/03/26 04:42:23;;;;;;;5.63;2.00;;;;;;;14.86;66.01;98361.50;6011998;23;20164;-88
2023/03/26 04:45:38;;;;;;;3.70;1.80;;;;;;;14.99;65.90;98356.91;6035882;23;20577;-91
2023/03/26 04:51:49;;;;;;;2.50;1.40;;;;;;;15.07;63.84;98365.03;6114586;23;20659;-91
2023/03/26 04:57:33;;;;;;;2.53;1.50;;;;;;;14.65;63.99;98373.81;6066230;23;20290;-89
2023/03/26 05:00:22;;;;;;;2.00;1.03;;;;;;;14.69;62.85;98372.63;6066923;23;20195;-90
2023/03/26 05:02:52;;;;;;;1.70;0.90;;;;;;;14.76;62.62;98379.06;6011776;23;20175;-88
2023/03/26 05:05:21;;;;;;;1.73;0.90;;;;;;;14.83;61.76;98387.31;6066070;23;20212;-90
2023/03/26 05:07:46;;;;;;;1.37;0.60;;;;;;;14.88;60.82;98390.44;6066288;23;20221;-90
2023/03/26 05:10:21;;;;;;;1.40;0.70;;;;;;;14.90;61.01;98399.88;6066395;23;20233;-90
2023/03/26 05:13:15;;;;;;;2.40;1.00;;;;;;;15.04;60.47;98396.13;6185706;23;20516;-91
2023/03/26 05:15:41;;;;;;;2.10;0.67;;;;;;;15.30;59.37;98414.09;6185351;23;20134;-90
2023/03/26 05:18:32;;;;;;;2.63;1.13;;;;;;;15.63;59.12;98413.13;6186097;23;20153;-91
2023/03/26 05:21:18;;;;;;;2.30;0.83;;;;;;;15.87;56.54;98423.41;6042638;23;20495;-90
2023/03/26 05:23:44;;;;;;;1.70;0.80;;;;;;;15.99;56.08;98431.13;6066346;23;20694;-90
2023/03/26 05:30:13;;;;;;;2.30;0.93;;;;;;;16.44;54.39;98434.25;6054713;23;20564;-92
2023/03/26 05:46:37;;;;;;;1.10;0.60;;;;;;;16.43;52.17;98439.69;6009350;23;20155;-90
2023/03/26 05:49:50;;;;;;;2.80;0.80;;;;;;;16.31;52.46;98449.50;6009291;23;20157;-91
2023/03/26 05:52:28;;;;;;;;;;;;;;;;;;;;;
2023/03/26 05:54:54;;;;;;;0.87;0.40;;;;;;;15.75;54.41;98438.50;6009750;23;20232;-90
2023/03/26 05:57:42;;;;;;;;;;;;;;;;;;;;;
2023/03/26 06:00:47;;;;;;;3.13;0.60;;;;;;;15.87;54.21;98434.84;6199196;23;20288;-94
2023/03/26 06:03:16;;;;;;;0.50;0.37;;;;;;;15.64;54.98;98428.03;6217409;23;20140;-91
2023/03/26 06:05:44;;;;;;;5.83;2.53;;;;;;;15.24;56.71;98430.47;6216886;23;20149;-90
2023/03/26 06:08:10;;;;;;;3.20;0.90;;;;;;;15.30;56.87;98439.69;6190597;23;20214;-88
2023/03/26 06:10:38;;;;;;;1.60;0.70;;;;;;;15.46;56.57;98450.66;6190617;23;20231;-89
2023/03/26 06:13:04;;;;;;;2.13;0.70;;;;;;;15.39;56.42;98455.59;6217073;23;20641;-89
2023/03/26 06:15:30;;;;;;;1.60;0.80;;;;;;;15.61;56.74;98461.78;6217104;23;20157;-89
2023/03/26 06:17:55;;;;;;;1.00;0.47;;;;;;;15.69;57.26;98472.53;6216673;23;20155;-90
2023/03/26 06:20:28;;;;;;;3.03;0.90;;;;;;;16.47;53.83;98462.22;6190907;23;20179;-91
2023/03/26 06:22:54;;;;;;;1.27;0.70;;;;;;;16.45;52.66;98461.53;6217078;23;20137;-88
2023/03/26 06:25:22;;;;;;;2.27;0.60;;;;;;;16.54;53.28;98464.25;6217099;23;20153;-90
2023/03/26 06:27:50;;;;;;;0.87;0.53;;;;;;;16.34;53.67;98470.41;6217276;23;20157;-90
2023/03/26 06:30:15;;;;;;;0.90;0.60;;;;;;;16.90;53.70;98472.56;6216930;23;20225;-88
2023/03/26 06:32:41;;;;;;;3.33;1.03;;;;;;;17.89;50.86;98467.88;6217334;23;20485;-87
2023/03/26 06:35:07;;;;;;;1.63;0.80;;;;;;;18.92;47.00;98461.47;6216599;23;20511;-87
2023/03/26 06:37:32;;;;;;;1.70;0.60;;;;;;;19.61;45.20;98467.00;6216480;23;20573;-88
2023/03/26 06:39:57;;;;;;;1.43;0.70;;;;;;;20.51;43.34;98461.31;6216404;23;20180;-89
2023/03/26 06:42:23;;;;;;;1.40;0.73;;;;;;;20.87;42.35;98461.09;6216829;23;20146;-89
2023/03/26 06:44:48;;;;;;;1.40;0.60;;;;;;;20.87;41.71;98466.44;6216847;23;20247;-88
2023/03/26 06:47:14;;;;;;;1.20;0.57;;;;;;;20.55;41.71;98469.78;6190298;23;20165;-87
2023/03/26 06:49:40;;;;;;;1.10;0.70;;;;;;;20.50;43.88;98472.94;6216430;23;20142;-91
2023/03/26 06:52:06;;;;;;;1.67;0.70;;;;;;;20.85;42.15;98463.94;6216498;23;20146;-88
2023/03/26 06:54:31;;;;;;;1.53;0.70;;;;;;;21.15;42.33;98465.19;6190209;23;20168;-88
2023/03/26 06:57:17;;;;;;;0.93;0.50;;;;;;;20.74;41.43;98464.22;6190155;23;20228;-91
2023/03/26 06:59:48;;;;;;;1.17;0.53;;;;;;;20.30;41.80;98483.97;6216438;23;20212;-92
2023/03/26 07:02:19;;;;;;;0.90;0.43;;;;;;;20.29;42.90;98476.97;6190251;23;20181;-90
2023/03/26 07:04:50;;;;;;;0.83;0.43;;;;;;;20.37;42.51;98469.03;6216905;23;20137;-92
2023/03/26 07:08:12;;;;;;;;;;;;;;;;;;;;;
2023/03/26 07:14:23;;;;;;;1.30;0.70;;;;;;;21.26;41.65;98457.75;5959444;23;20252;-92
2023/03/26 07:17:37;;;;;;;;;;;;;;;;;;;;;
2023/03/26 07:21:20;;;;;;;0.40;0.33;;;;;;;20.84;39.63;98468.44;6191207;23;20272;-91
2023/03/26 07:28:31;;;;;;;;;;;;;;;;;;;;;
2023/03/26 07:34:36;;;;;;;1.20;0.60;;;;;;;20.30;41.30;98473.34;6006870;23;20246;-90
2023/03/26 07:40:50;;;;;;;1.03;0.50;;;;;;;19.57;41.38;98492.19;6095348;23;20204;-92
2023/03/26 07:43:47;;;;;;;1.60;0.60;;;;;;;19.96;42.83;98492.72;6215899;23;20142;-91
2023/03/26 07:46:22;;;;;;;1.90;0.87;;;;;;;19.77;42.24;98506.19;6189779;23;20237;-90
2023/03/26 07:51:46;;;;;;;1.47;0.60;;;;;;;19.27;44.17;98508.50;6215807;23;20181;-91
2023/03/26 07:54:43;;;;;;;1.10;0.53;;;;;;;19.37;44.66;98503.97;6189639;23;20154;-92
2023/03/26 08:04:09;;;;;;;1.33;0.50;;;;;;;19.71;41.17;98504.13;6009825;23;20564;-89
2023/03/26 08:07:24;;;;;;;1.63;0.73;;;;;;;19.65;40.27;98499.44;5963263;23;20172;-90
2023/03/26 08:10:42;;;;;;;0.80;0.50;;;;;;;19.43;42.17;98514.03;6096962;23;20129;-90
2023/03/26 08:13:56;;;;;;;;;;;;;;;;;;;;;
2023/03/26 08:17:30;;;;;;;;;;;;;;;;;;;;;
2023/03/26 08:20:29;;;;;;;0.60;0.33;;;;;;;19.61;40.74;98508.69;6066391;23;20264;-92
2023/03/26 08:23:33;;;;;;;1.17;0.57;;;;;;;20.07;40.46;98496.94;6216231;23;20138;-91
2023/03/26 08:30:26;;;;;;;;;;;;;;;;;;;;;
2023/03/26 08:32:55;;;;;;;2.27;0.80;;;;;;;19.62;40.39;98494.44;6215538;23;20537;-89
2023/03/26 08:36:14;;;;;;;12.43;0.83;;;;;;;19.57;41.51;98502.84;6215667;23;20154;-92
2023/03/26 08:38:49;;;;;;;0.90;0.40;;;;;;;19.47;41.01;98502.09;6189697;23;20561;-90
2023/03/26 08:41:28;;;;;;;0.80;0.40;;;;;;;19.74;42.01;98487.88;6215617;23;20510;-89
2023/03/26 08:44:43;;;;;;;;;;;;;;;;;;;;;
2023/03/26 09:02:40;;;;;;;1.03;0.47;;;;;;;20.53;36.82;98466.47;5955889;23;20302;-91
2023/03/26 09:08:50;;;;;;;;;;;;;;;;;;;;;
2023/03/26 09:32:13;;;;;;;3.47;0.83;;;;;;;20.68;35.06;98447.06;5982313;23;20626;-91
2023/03/26 09:56:19;;;;;;;;;;;;;;;;;;;;;
2023/03/26 10:03:17;;;;;;;1.77;0.40;;;;;;;21.50;31.56;98450.75;5937818;24;20241;-93
2023/03/26 10:13:50;;;;;;;1.20;0.50;;;;;;;22.16;31.56;98456.75;5985582;23;20190;-92
2023/03/26 10:34:38;;;;;;;1.23;0.30;;;;;;;22.04;31.16;98439.41;5982853;24;20207;-93
2023/03/26 10:37:28;;;;;;;2.00;0.53;;;;;;;22.75;29.99;98436.72;5983085;24;20219;-90
2023/03/26 10:40:15;;;;;;;1.27;0.50;;;;;;;22.76;30.18;98424.19;5982127;23;20191;-91
2023/03/26 10:53:37;;;;;;;0.70;0.30;;;;;;;22.78;29.04;98420.34;5954010;24;20569;-92
2023/03/26 10:56:48;;;;;;;1.00;0.30;;;;;;;22.73;29.34;98411.19;5899457;24;20302;-90
2023/03/26 10:59:38;;;;;;;1.13;0.40;;;;;;;22.96;27.83;98406.72;5899215;24;20193;-90
2023/03/26 11:02:52;;;;;;;0.83;0.30;;;;;;;23.07;28.20;98406.31;5985708;23;20172;-92
2023/03/26 11:05:27;;;;;;;0.90;0.30;;;;;;;23.06;29.55;98399.31;6095944;23;20148;-90
2023/03/26 11:08:02;;;;;;;1.70;0.20;;;;;;;22.91;26.93;98385.03;6071942;23;20159;-90
2023/03/26 11:11:05;;;;;;;1.00;0.40;;;;;;;22.81;27.66;98393.28;6096749;23;20531;-90
2023/03/26 11:14:21;;;;;;;0.67;0.30;;;;;;;23.04;27.33;98369.25;6024944;23;20156;-90
2023/03/26 11:20:44;;;;;;;0.33;0.20;;;;;;;23.03;27.25;98363.09;6095938;23;20203;-91
2023/03/26 11:31:06;;;;;;;;;;;;;;;;;;;;;
2023/03/26 11:34:16;;;;;;;0.60;0.30;;;;;;;23.57;27.19;98353.13;6096100;23;20619;-93
2023/03/26 11:41:15;;;;;;;0.70;0.40;;;;;;;23.23;27.88;98366.09;6066515;23;20197;-91
2023/03/26 11:46:44;;;;;;;0.97;0.40;;;;;;;23.68;27.51;98344.69;6004642;23;20214;-89
2023/03/26 11:59:17;;;;;;;1.83;0.20;;;;;;;24.65;26.23;98326.63;5956979;23;20256;-91
2023/03/26 12:02:11;;;;;;;0.70;0.20;;;;;;;24.42;25.56;98319.56;6028322;23;20209;-88
2023/03/26 12:19:31;;;;;;;;;;;;;;;;;;;;;
2023/03/26 12:22:03;;;;;;;2.63;0.30;;;;;;;24.91;26.37;98308.19;6081853;23;20643;-88
2023/03/26 12:24:51;;;;;;;;;;;;;;;;;;;;;
2023/03/26 12:31:01;;;;;;;2.73;0.40;;;;;;;25.38;25.60;98296.84;6066393;23;20172;-89
2023/03/26 12:36:58;;;;;;;0.82;0.30;;;;;;;25.39;24.76;98288.56;6094880;23;20482;-88
2023/03/26 12:39:39;;;;;;;1.77;0.40;;;;;;;25.45;24.97;98297.72;6095251;23;20192;-88
2023/03/26 12:42:47;;;;;;;1.48;0.52;;;;;;;25.54;24.56;98297.41;6216141;23;20553;-89
2023/03/26 12:45:42;;;;;;;1.10;0.40;;;;;;;25.49;24.34;98281.06;6066902;23;20280;-93
2023/03/26 12:48:24;;;;;;;0.57;0.38;;;;;;;25.67;23.88;98277.06;6103847;23;20165;-92
2023/03/26 12:51:07;;;;;;;0.20;0.10;;;;;;;25.51;23.76;98280.88;6214625;23;20239;-90
2023/03/26 12:53:51;;;;;;;0.85;0.30;;;;;;;25.88;23.75;98285.03;6216538;23;20137;-89
2023/03/26 13:06:43;;;;;;;0.20;0.10;;;;;;;25.45;25.29;98260.97;6171020;23;20168;-89
2023/03/26 13:13:24;;;;;;;0.50;0.20;;;;;;;25.47;23.28;98252.78;6151994;23;20157;-91
2023/03/26 13:19:22;;;;;;;1.27;0.47;;;;;;;26.16;23.00;98238.31;6056930;23;20659;-90
2023/03/26 13:22:26;;;;;;;1.40;0.40;;;;;;;26.39;23.68;98237.16;6072980;23;20195;-89
2023/03/26 13:28:41;;;;;;;1.33;0.40;;;;;;;25.88;21.96;98231.31;5955390;24;20563;-88
2023/03/26 13:52:24;;;;;;;;;;;;;;;;;;;;;
2023/03/26 13:59:07;;;;;;;0.33;0.10;;;;;;;24.59;22.47;98214.84;5819458;24;20730;-92
2023/03/26 14:19:32;;;;;;;2.33;1.03;;;;;;;24.73;22.15;98206.75;5846381;24;20204;-92
2023/03/26 14:30:05;;;;;;;0.70;0.30;;;;;;;24.42;21.98;98206.22;5820008;24;20173;-92
2023/03/26 14:36:12;;;;;;;0.57;0.27;;;;;;;24.29;21.40;98214.13;5845811;24;20170;-94
2023/03/26 14:49:08;;;;;;;3.70;0.40;;;;;;;23.88;21.69;98213.81;5859266;24;20185;-91
2023/03/26 15:02:49;;;;;;;;;;;;;;;;;;;;;
2023/03/26 15:06:14;;;;;;;2.80;0.70;;;;;;;23.70;21.71;98203.50;5934968;23;20262;-90
2023/03/26 15:19:55;;;;;;;1.77;0.50;;;;;;;23.99;21.71;98209.81;5868110;24;20204;-90
2023/03/26 15:22:47;;;;;;;1.83;0.60;;;;;;;23.69;21.68;98215.19;6051325;23;20494;-90
2023/03/26 15:28:47;;;;;;;4.60;1.20;;;;;;;24.28;21.56;98202.56;6037707;23;20546;-90
2023/03/26 15:31:51;;;;;;;;;;;;;;;;;;;;;
2023/03/26 15:35:14;;;;;;;;;;;;;;;;;;;;;
2023/03/26 15:38:33;;;;;;;2.10;0.90;;;;;;;24.17;21.27;98200.38;6216813;23;20217;-90
2023/03/26 15:42:02;;;;;;;;;;;;;;;;;;;;;
2023/03/26 15:45:36;;;;;;;;;;;;;;;;;;;;;
2023/03/26 15:55:13;;;;;;;1.63;0.67;;;;;;;24.16;22.40;98196.03;6200137;23;20213;-90
2023/03/26 15:58:06;;;;;;;;;;;;;;;;;;;;;
2023/03/26 16:00:57;;;;;;;;;;;;;;;;;;;;;
2023/03/26 16:07:33;;;;;;;1.43;0.67;;;;;;;23.83;23.09;98211.69;6203330;23;20196;-90
2023/03/26 16:14:21;;;;;;;;;;;;;;;;;;;;;
2023/03/26 16:17:10;;;;;;;1.23;0.50;;;;;;;23.41;23.30;98224.91;6197518;23;20228;-90
2023/03/26 16:19:57;;;;;;;1.87;0.63;;;;;;;23.21;24.53;98237.94;6214833;23;20196;-90
2023/03/26 16:22:43;;;;;;;2.23;0.63;;;;;;;23.18;24.29;98232.13;6216513;23;20133;-90
2023/03/26 16:26:07;;;;;;;;;;;;;;;;;;;;;
2023/03/26 16:57:51;;;;;;;;;;;;;;;;;;;;;
2023/03/26 17:10:31;;;;;;;;;;;;;;;;;;;;;
2023/03/26 17:16:48;;;;;;;;;;;;;;;;;;;;;
2023/03/26 17:23:17;;;;;;;;;;;;;;;;;;;;;
2023/03/26 17:29:00;;;;;;;18.70;5.93;;;;;;;20.21;29.80;98307.41;6137993;23;20155;-91
2023/03/26 17:32:24;;;;;;;;;;;;;;;;;;;;;
2023/03/26 17:35:16;;;;;;;;;;;;;;;;;;;;;
2023/03/26 17:37:48;;;;;;;13.57;5.53;;;;;;;20.23;28.98;98316.94;6214305;23;20260;-91
2023/03/26 17:41:01;;;;;;;11.53;4.70;;;;;;;19.85;29.46;98329.88;6214073;23;20261;-90
2023/03/26 17:43:41;;;;;;;7.57;3.30;;;;;;;19.59;30.03;98329.91;6145419;23;20577;-90
2023/03/26 17:46:28;;;;;;;;;;;;;;;;;;;;;
2023/03/26 17:49:32;;;;;;;8.93;4.30;;;;;;;19.48;29.81;98333.66;6214866;23;20202;-90
2023/03/26 17:52:46;;;;;;;11.60;5.23;;;;;;;19.58;29.82;98341.50;6214523;23;20160;-90
2023/03/26 17:55:29;;;;;;;19.50;6.87;;;;;;;19.24;29.65;98329.94;6216094;23;20154;-90
2023/03/26 17:58:28;;;;;;;16.17;6.43;;;;;;;18.96;30.20;98340.69;6214712;23;20164;-90
2023/03/26 18:01:11;;;;;;;13.10;6.17;;;;;;;18.90;30.91;98346.59;6217427;23;20636;-90
2023/03/26 18:03:49;;;;;;;12.87;6.13;;;;;;;18.86;30.32;98347.91;6216964;23;20140;-90
2023/03/26 18:06:37;;;;;;;9.33;4.20;;;;;;;18.88;30.20;98351.22;6190791;23;20173;-90
2023/03/26 18:09:11;;;;;;;12.47;5.23;;;;;;;18.88;30.59;98355.69;6190783;23;20138;-90
2023/03/26 18:12:06;;;;;;;18.00;6.80;;;;;;;18.86;32.56;98369.13;6217860;23;20141;-90
2023/03/26 18:18:19;;;;;;;;;;;;;;;;;;;;;
2023/03/26 18:21:17;;;;;;;;;;;;;;;;;;;;;
2023/03/26 18:24:34;;;;;;;13.50;6.30;;;;;;;18.14;33.11;98376.22;6217689;23;20213;-90
2023/03/26 18:27:21;;;;;;;8.23;3.83;;;;;;;18.04;32.34;98375.44;6161267;23;20580;-90
2023/03/26 18:30:49;;;;;;;;;;;;;;;;;;;;;
2023/03/26 18:33:37;;;;;;;;;;;;;;;;;;;;;
2023/03/26 18:36:29;;;;;;;;;;;;;;;;;;;;;
2023/03/26 18:49:28;;;;;;;;;;;;;;;;;;;;;
2023/03/26 18:52:24;;;;;;;8.80;3.43;;;;;;;17.54;34.41;98391.63;5982462;24;20239;-91
2023/03/26 18:55:14;;;;;;;7.87;2.60;;;;;;;17.33;34.01;98382.13;5982216;24;20155;-90
2023/03/26 18:57:42;;;;;;;10.40;3.43;;;;;;;17.05;35.64;98389.13;6065990;23;20205;-90
2023/03/26 19:00:21;;;;;;;4.67;1.87;;;;;;;17.05;33.27;98389.97;6066919;23;20200;-89
2023/03/26 19:03:06;;;;;;;6.07;2.13;;;;;;;17.23;33.32;98387.44;6067486;23;20141;-90
2023/03/26 19:05:43;;;;;;;7.07;2.80;;;;;;;17.08;34.61;98388.84;6043022;23;20224;-90
2023/03/26 19:08:51;;;;;;;8.03;3.00;;;;;;;17.02;35.38;98384.09;6025493;23;20618;-90
2023/03/26 19:11:40;;;;;;;5.07;2.37;;;;;;;17.02;34.48;98382.28;6033385;23;20157;-90
2023/03/26 19:14:18;;;;;;;8.73;3.57;;;;;;;16.85;34.06;98376.84;6041600;23;20200;-90
2023/03/26 19:16:55;;;;;;;6.17;2.57;;;;;;;16.71;34.92;98387.84;6041404;23;20185;-90
2023/03/26 19:19:25;;;;;;;7.93;2.40;;;;;;;16.86;33.67;98381.16;6129710;23;20185;-89
2023/03/26 19:22:01;;;;;;;8.17;2.87;;;;;;;16.93;33.45;98377.81;6188297;23;20142;-90
2023/03/26 19:24:26;;;;;;;6.20;2.97;;;;;;;16.83;33.75;98374.34;6188084;23;20463;-88
2023/03/26 19:26:52;;;;;;;5.80;3.00;;;;;;;16.79;34.30;98380.88;6188297;23;20168;-89
2023/03/26 19:29:30;;;;;;;6.17;2.40;;;;;;;16.79;34.18;98378.25;6187818;23;20153;-89
2023/03/26 19:32:36;;;;;;;;;;;;;;;;;;;;;
2023/03/26 19:35:03;;;;;;;7.00;2.20;;;;;;;17.02;31.23;98365.56;6216013;23;20229;-90
2023/03/26 19:37:29;;;;;;;7.60;2.57;;;;;;;17.03;32.44;98372.53;6216140;23;20238;-90
2023/03/26 19:40:19;;;;;;;6.57;1.83;;;;;;;17.07;32.35;98365.97;6215966;23;20189;-89
2023/03/26 19:42:47;;;;;;;7.40;1.87;;;;;;;17.19;32.02;98367.50;6216761;23;20209;-90
2023/03/26 19:45:24;;;;;;;4.57;2.03;;;;;;;17.19;32.54;98363.03;6216414;23;20168;-89
2023/03/26 19:47:56;;;;;;;4.37;1.87;;;;;;;17.16;32.09;98354.56;6191282;23;20152;-90
2023/03/26 19:50:24;;;;;;;3.53;1.57;;;;;;;17.12;31.56;98363.75;6189723;23;20191;-89
2023/03/26 19:53:21;;;;;;;2.90;1.33;;;;;;;17.07;32.48;98356.22;6189695;23;20592;-89
2023/03/26 19:56:03;;;;;;;4.73;1.77;;;;;;;17.11;32.43;98359.44;6216350;23;20127;-90
2023/03/26 19:58:29;;;;;;;4.37;1.60;;;;;;;17.11;33.85;98362.09;6189819;23;20154;-90
2023/03/26 20:00:57;;;;;;;4.13;1.80;;;;;;;17.11;33.97;98354.16;6216920;23;20185;-90
2023/03/26 20:03:53;;;;;;;;;;;;;;;;;;;;;
2023/03/26 20:06:23;;;;;;;9.13;3.73;;;;;;;16.96;35.40;98355.53;6216285;23;20205;-90
2023/03/26 20:08:52;;;;;;;10.30;4.93;;;;;;;16.63;37.10;98364.69;6216172;23;20137;-90
2023/03/26 20:11:23;;;;;;;11.70;4.57;;;;;;;16.28;38.51;98365.16;6215819;23;20178;-89
2023/03/26 20:13:50;;;;;;;8.83;3.70;;;;;;;16.11;37.95;98368.44;6216273;23;20534;-89
2023/03/26 20:16:24;;;;;;;13.17;5.00;;;;;;;16.24;38.10;98357.63;6189224;23;20160;-89
2023/03/26 20:18:49;;;;;;;7.23;3.47;;;;;;;16.33;37.50;98359.44;6215801;23;20141;-89
2023/03/26 20:21:15;;;;;;;8.60;3.73;;;;;;;16.30;37.15;98352.63;6189386;23;20157;-89
2023/03/26 20:23:41;;;;;;;7.63;3.37;;;;;;;16.26;36.92;98356.50;6215659;23;20157;-89
2023/03/26 20:26:15;;;;;;;6.93;3.50;;;;;;;16.19;37.26;98342.16;6189569;23;20157;-90
2023/03/26 20:28:41;;;;;;;14.63;4.30;;;;;;;16.08;37.66;98358.13;6189736;23;20213;-90
2023/03/26 20:31:15;;;;;;;9.83;4.00;;;;;;;15.91;38.02;98348.16;6189396;23;20158;-89
2023/03/26 20:33:41;;;;;;;8.40;4.10;;;;;;;15.75;38.71;98347.81;6216395;23;20134;-89
2023/03/26 20:36:10;;;;;;;9.63;4.07;;;;;;;15.59;39.08;98347.47;6189384;23;20167;-89
2023/03/26 20:38:35;;;;;;;11.17;4.40;;;;;;;15.43;39.13;98347.06;6215448;23;20216;-89
2023/03/26 20:41:01;;;;;;;12.20;5.27;;;;;;;15.31;39.58;98341.84;6189419;23;20594;-89
2023/03/26 20:43:29;;;;;;;12.37;5.33;;;;;;;15.15;39.80;98341.47;6215896;23;20208;-89
2023/03/26 20:45:56;;;;;;;14.20;5.17;;;;;;;15.10;39.29;98342.81;6215517;23;20582;-89
2023/03/26 20:48:22;;;;;;;11.27;4.73;;;;;;;15.08;39.84;98329.75;6215576;23;20149;-89
2023/03/26 20:50:47;;;;;;;10.60;4.70;;;;;;;15.22;39.03;98332.09;6215570;23;20538;-89
2023/03/26 20:53:15;;;;;;;10.20;4.33;;;;;;;15.27;38.54;98329.88;6190581;23;20157;-89
2023/03/26 20:55:45;;;;;;;7.03;3.60;;;;;;;15.22;38.35;98328.59;6189215;23;20152;-89
2023/03/26 20:58:16;;;;;;;10.23;3.60;;;;;;;15.21;38.09;98330.41;6215439;23;20195;-89
2023/03/26 21:00:45;;;;;;;9.47;4.30;;;;;;;15.15;38.82;98330.91;6189234;23;20491;-88
2023/03/26 21:03:12;;;;;;;9.40;3.67;;;;;;;15.15;38.99;98327.41;6215424;23;20158;-89
2023/03/26 21:05:39;;;;;;;9.10;4.37;;;;;;;15.18;39.29;98325.38;6215382;23;20491;-89
2023/03/26 21:08:06;;;;;;;10.50;4.93;;;;;;;15.16;40.11;98327.31;6215778;23;20164;-89
2023/03/26 21:10:33;;;;;;;12.67;5.43;;;;;;;15.03;40.98;98325.81;6215373;23;20149;-89
2023/03/26 21:13:26;;;;;;;21.60;7.43;;;;;;;14.97;40.45;98321.88;6189518;23;20215;-89
2023/03/26 21:16:01;;;;;;;12.57;5.90;;;;;;;14.96;40.45;98317.59;6215719;23;20141;-89
2023/03/26 21:18:29;;;;;;;16.47;6.13;;;;;;;14.99;40.49;98313.88;6215696;23;20216;-89
2023/03/26 21:21:33;;;;;;;14.37;5.07;;;;;;;14.76;41.06;98321.03;6189407;23;20196;-89
2023/03/26 21:24:24;;;;;;;10.37;4.47;;;;;;;14.54;41.29;98315.84;6215700;23;20614;-89
2023/03/26 21:27:01;;;;;;;10.60;3.77;;;;;;;14.49;41.04;98312.75;6216574;23;20148;-89
2023/03/26 21:29:27;;;;;;;11.67;4.57;;;;;;;14.51;40.85;98311.66;6217325;23;20534;-89
2023/03/26 21:31:54;;;;;;;5.83;2.90;;;;;;;14.49;41.54;98310.94;6217675;23;20254;-89
2023/03/26 21:34:21;;;;;;;7.27;3.60;;;;;;;14.45;41.49;98313.94;6217552;23;20654;-89
2023/03/26 21:36:47;;;;;;;7.50;3.90;;;;;;;14.37;41.59;98306.66;6217587;23;20148;-89
2023/03/26 21:39:14;;;;;;;7.73;3.30;;;;;;;14.50;40.97;98298.59;6190895;23;20197;-89
2023/03/26 21:41:49;;;;;;;8.63;3.07;;;;;;;14.55;40.41;98293.78;6217704;23;20159;-89
2023/03/26 21:44:17;;;;;;;10.10;3.00;;;;;;;14.55;40.15;98291.13;6191267;23;20237;-89
2023/03/26 21:46:45;;;;;;;5.93;2.83;;;;;;;14.46;40.98;98290.13;6217520;23;20158;-89
2023/03/26 21:49:12;;;;;;;5.50;2.73;;;;;;;14.29;41.02;98287.13;6217830;23;20142;-89
2023/03/26 21:51:39;;;;;;;6.40;2.50;;;;;;;14.18;41.98;98280.91;6217183;23;20151;-89
2023/03/26 21:54:30;;;;;;;8.40;2.60;;;;;;;14.17;41.57;98281.06;6217435;23;20150;-89
2023/03/26 21:57:25;;;;;;;7.07;2.77;;;;;;;14.07;42.22;98280.94;6216045;23;20467;-89
2023/03/26 22:00:13;;;;;;;10.03;2.27;;;;;;;13.94;41.90;98272.34;6204954;23;20194;-88
2023/03/26 22:03:12;;;;;;;11.03;2.50;;;;;;;13.98;42.22;98278.22;6204679;23;20164;-89
2023/03/26 22:06:11;;;;;;;6.50;2.20;;;;;;;13.86;42.24;98274.75;6209258;23;20256;-89
2023/03/26 22:08:39;;;;;;;7.07;2.03;;;;;;;13.86;42.22;98271.28;6217398;23;20149;-89
2023/03/26 22:11:06;;;;;;;6.20;2.63;;;;;;;13.87;41.94;98271.16;6215819;23;20455;-89
2023/03/26 22:13:34;;;;;;;6.20;1.97;;;;;;;13.89;42.67;98268.41;6216905;23;20571;-88
2023/03/26 22:16:00;;;;;;;4.53;2.30;;;;;;;13.92;41.90;98261.09;6216857;23;20155;-89
2023/03/26 22:18:29;;;;;;;4.97;2.27;;;;;;;13.92;42.46;98257.63;6216933;23;20174;-89